YSWG/WGA METAR and TAF weather

Enter ICAO airport designator
Station Type Date Time Source
YSWG METAR 2019/06/18 17:00 UTC NOAA

YSWG 181700Z AUTO 27006KT 9999 // NCD 04/04 Q1022


Station Type Date Time Source
YSWG Decoded METAR 2019/06/18 17:00 UTC NOAA

Wagga Airport, Australia (YSWG) 35-09S 147-27E 213M
Jun 18, 2019 - 01:00 PM EDT / 2019.06.18 1700 UTC
Wind: from the W (270 degrees) at 7 MPH (6 KT):0
Visibility: greater than 7 mile(s):0
Temperature: 39 F (4 C)
Dew Point: 39 F (4 C)
Relative Humidity: 100%
Pressure (altimeter): 30.18 in. Hg (1022 hPa)
ob: YSWG 181700Z AUTO 27006KT 9999 // NCD 04/04 Q1022
cycle: 17

Station Type Date Time Source
YSWG TAF 2018/05/25 18:03 UTC NOAA

TAF YSWG 251649Z 2518/2608 07008KT CAVOK

Example: see airport list